Aviation Digital Data Service (ADDS)

Output produced by METARs form (0842 UTC 17 November 2018)
found at http://www.aviationweather.gov/metar/data/
 
EFJY 170820Z AUTO 27012KT CAVOK 05/03 Q1028
EFJY 170750Z AUTO 27011KT CAVOK 05/03 Q1028
EFJY 170720Z AUTO 27012KT CAVOK 04/03 Q1028
EFJY 170650Z AUTO 27013KT CAVOK 04/03 Q1027
EFJY 170620Z AUTO 27012KT 9999 FEW013 05/03 Q1027
EFJY 170550Z AUTO 27012KT 9999 FEW013 05/03 Q1028
EFJY 170520Z AUTO 28010KT 9999 FEW012 05/03 Q1028
EFJY 170450Z AUTO 27010KT 210V300 9999 SCT010 05/04 Q1028
EFJY 170420Z AUTO 25007KT 200V290 9999 FEW011 05/04 Q1028
EFJY 170350Z AUTO 25009KT 9999 FEW012 FEW014 06/04 Q1028
EFJY 170320Z AUTO 26006KT 230V300 CAVOK 06/04 Q1028
EFJY 170250Z AUTO 26007KT 200V300 9999 FEW012 FEW059 06/04 Q1028
EFJY 170220Z AUTO 27008KT 230V300 9999 FEW012 SCT059 BKN066 06/04 Q1028
EFJY 170150Z AUTO 26009KT 210V290 9999 FEW011 FEW068 SCT096 BKN158 06/04 Q1028
EFJY 170120Z AUTO 24007KT 190V280 9999 FEW012 FEW097 BKN149 06/04 Q1028
EFJY 170050Z AUTO 24007KT 190V280 9999 FEW012 SCT097 BKN173 07/04 Q1028
EFJY 170020Z AUTO 25008KT 160V280 9999 FEW013 FEW090 BKN099 BKN112 07/04 Q1028
EFJY 162350Z AUTO 25008KT 210V280 9999 BKN014 BKN113 07/04 Q1029
EFJY 162320Z AUTO 25009G20KT 210V290 9999 BKN014 07/04 Q1029
EFJY 162250Z AUTO 25008KT 210V300 9999 BKN014 07/04 Q1029
EFJY 162220Z AUTO 25009KT 9999 OVC014 07/05 Q1029
EFJY 162150Z AUTO 26007KT 210V290 9999 OVC014 07/05 Q1029
EFJY 162120Z AUTO 25010KT 210V280 9999 OVC014 07/05 Q1029
EFJY 162050Z AUTO 25010KT 210V280 9999 OVC014 07/05 Q1029
EFJY 162020Z AUTO 26010KT 210V290 9999 OVC014 07/05 Q1029
EFJY 161950Z AUTO 25009KT 200V280 9999 OVC014 07/05 Q1029
EFJY 161920Z AUTO 24006KT 210V280 9999 OVC014 07/05 Q1029
EFJY 161850Z AUTO 24012KT 9999 OVC015 07/05 Q1029
EFJY 161820Z AUTO 25009KT 9999 OVC014 07/05 Q1029
EFJY 161750Z AUTO 24010KT 9999 OVC014 08/05 Q1029
EFJY 161720Z AUTO 25010KT 9999 OVC014 08/05 Q1028
EFJY 161650Z AUTO 24011KT 9999 OVC014 08/05 Q1028
EFJY 161620Z AUTO 24008KT 9999 OVC014 08/05 Q1029
EFJY 161550Z AUTO 22010KT 9999 OVC014 08/05 Q1028
EFJY 161520Z AUTO 22009KT 170V250 9999 OVC015 08/05 Q1028
EFJY 161450Z AUTO 22007KT 160V280 9999 OVC015 08/05 Q1028
EFJY 161420Z AUTO 24007KT 180V310 9999 OVC014 08/05 Q1028
EFJY 161350Z AUTO 22007KT 170V280 9999 BKN013 08/06 Q1028
EFJY 161320Z AUTO 21006KT 140V260 9999 BKN012 08/06 Q1027
EFJY 161250Z AUTO 21009KT 9999 BKN012 08/06 Q1028
EFJY 161220Z AUTO 21009KT 9999 BKN012 08/06 Q1028
EFJY 161150Z 21010KT 170V240 9999 BKN012 09/07 Q1028
EFJY 161120Z 21006KT 170V260 9999 FEW010 BKN012 09/07 Q1028
EFJY 161050Z 21008KT 180V250 9999 FEW010 BKN012 09/07 Q1028
EFJY 161020Z 21005KT 150V270 9999 SCT008 BKN010 09/08 Q1028
EFJY 160950Z 21005KT 150V280 9999 BKN006 BKN008 09/08 Q1028
EFJY 160920Z 20005KT 150V270 9999 BKN005 BKN007 08/08 Q1028
EFJY 160850Z 21006KT 160V280 9000 -DZ OVC006 08/08 Q1028
EFJY 160820Z 23005KT 140V280 9000 -DZ BKN006 OVC008 08/07 Q1028
EFJY 160750Z 22005KT 170V280 9000 -DZ BKN006 BKN008 08/07 Q1028
EFJY 160720Z 21005KT 150V280 9000 -DZ FEW005 BKN007 BKN009 08/07 Q1028
EFJY 160650Z 22005KT 150V280 8000 -DZ FEW005 BKN007 08/07 Q1028
EFJY 160620Z 20004KT 140V250 8000 -DZ SCT005 BKN007 08/07 Q1028
EFJY 160550Z AUTO 20005KT 140V260 5000 OVC006 08/07 Q1028
EFJY 160520Z AUTO 20008KT 4400 BR OVC006 07/07 Q1028
EFJY 160450Z AUTO 20007KT 4000 BR OVC005 07/07 Q1028
EFJY 160420Z AUTO 21007KT 170V240 3300 BR OVC005 07/07 Q1028
EFJY 160350Z AUTO 21006KT 7000 OVC005 07/07 Q1028
EFJY 160320Z AUTO 20007KT 7000 OVC005 07/07 Q1028
EFJY 160250Z AUTO 19004KT 150V250 7000 OVC006 07/07 Q1028
EFJY 160220Z AUTO 21004KT 160V250 9999 OVC007 07/07 Q1028
EFJY 160150Z AUTO 22005KT 150V270 7000 OVC007 07/07 Q1028
EFJY 160120Z AUTO 21006KT 160V260 9999 OVC008 08/07 Q1028
EFJY 160050Z AUTO 21004KT 030V260 9999 OVC006 07/07 Q1028
EFJY 160020Z AUTO 21004KT 150V270 6000 OVC006 07/07 Q1028
EFJY 152350Z AUTO 21004KT 140V250 9999 OVC007 07/07 Q1027
EFJY 152320Z AUTO 23005KT 180V300 9999 OVC007 08/07 Q1027
EFJY 152250Z AUTO 20004KT 130V250 9000 OVC007 07/07 Q1027
EFJY 152220Z AUTO 22006KT 170V260 8000 OVC007 07/07 Q1027
EFJY 152150Z AUTO 21006KT 160V250 8000 OVC006 07/07 Q1027
EFJY 152120Z AUTO 21004KT 160V270 6000 OVC005 07/07 Q1026
EFJY 152050Z AUTO 21005KT 140V330 4300 BR OVC005 07/07 Q1026
TAF EFJY 170837Z 1709/1809 27013KT CAVOK 
     BECMG 1711/1713 33012KT 
     PROB40 
     TEMPO 1718/1809 35012G24KT